Time;durP1;ratioP1;P1;durP2;ratioP2;P2;SDS_P1;SDS_P2;PMS_P1;PMS_P2;Temp;Humidity;BMP_temperature;BMP_pressure;BME280_temperature;BME280_humidity;BME280_pressure;Samples;Min_cycle;Max_cycle;Signal;HPM_P1;HPM_P2
2020/12/29 00:09:07;;;;;;;5.27;4.07;;;;;;;4.93;72.82;96768.72;493527;1143;65491;-69
2020/12/29 00:19:12;;;;;;;5.73;4.43;;;;;;;4.97;73.00;96762.28;493600;1143;65175;-70
2020/12/29 00:29:17;;;;;;;6.43;4.57;;;;;;;5.03;73.21;96746.16;493559;1144;65583;-68
2020/12/29 00:39:21;;;;;;;6.80;4.90;;;;;;;5.12;73.17;96741.93;495555;1143;65193;-69
2020/12/29 00:49:25;;;;;;;6.90;5.27;;;;;;;5.19;73.74;96737.01;493920;1143;65135;-70
2020/12/29 00:59:29;;;;;;;4.73;3.33;;;;;;;5.25;73.51;96733.88;493989;1143;65605;-69
2020/12/29 01:09:33;;;;;;;5.10;4.13;;;;;;;5.33;73.60;96720.99;493733;1143;65520;-69
2020/12/29 01:19:36;;;;;;;5.40;3.30;;;;;;;5.37;73.63;96712.91;493502;1143;65172;-71
2020/12/29 01:29:40;;;;;;;5.13;3.73;;;;;;;5.43;73.55;96689.79;493502;1143;65136;-71
2020/12/29 01:39:44;;;;;;;6.63;4.00;;;;;;;5.45;73.04;96669.66;494210;1142;65196;-70
2020/12/29 01:49:48;;;;;;;6.03;3.27;;;;;;;5.45;73.77;96663.61;493484;1143;65108;-68
2020/12/29 01:59:52;;;;;;;5.33;3.13;;;;;;;5.49;73.48;96645.94;493585;1144;65111;-69
2020/12/29 02:09:56;;;;;;;5.00;2.93;;;;;;;5.52;73.04;96633.48;493962;1143;65212;-68
2020/12/29 02:20:01;;;;;;;3.77;2.90;;;;;;;5.55;73.16;96625.38;494269;1144;65507;-69
2020/12/29 02:30:05;;;;;;;4.60;3.40;;;;;;;5.59;73.00;96629.34;494025;1143;65130;-68
2020/12/29 02:40:10;;;;;;;3.40;2.70;;;;;;;5.66;72.68;96600.98;494333;1142;65532;-69
2020/12/29 02:50:14;;;;;;;4.00;2.80;;;;;;;5.72;72.77;96597.00;494117;1143;66277;-68
2020/12/29 03:00:18;;;;;;;4.10;2.80;;;;;;;5.76;72.60;96608.77;493871;1143;65198;-69
2020/12/29 03:10:22;;;;;;;3.73;2.80;;;;;;;5.84;72.50;96606.28;494135;1144;65124;-70
2020/12/29 03:20:26;;;;;;;4.55;3.60;;;;;;;5.84;72.92;96602.84;494355;1143;65117;-70
2020/12/29 03:30:30;;;;;;;3.37;2.53;;;;;;;5.71;73.54;96601.37;494001;1143;65142;-69
2020/12/29 03:40:37;;;;;;;6.95;3.75;;;;;;;5.54;74.77;96594.28;493460;1143;65132;-69
2020/12/29 03:50:42;;;;;;;5.90;3.83;;;;;;;5.38;75.50;96584.47;493370;1143;65184;-69
2020/12/29 04:00:45;;;;;;;5.40;3.43;;;;;;;5.29;75.80;96573.94;493636;1143;65521;-69
2020/12/29 04:10:49;;;;;;;5.73;4.40;;;;;;;5.20;76.58;96569.56;493615;1143;65236;-69
2020/12/29 04:20:53;;;;;;;6.85;4.65;;;;;;;5.08;77.03;96553.30;493873;1143;65127;-69
2020/12/29 04:30:57;;;;;;;7.30;4.33;;;;;;;5.00;77.23;96535.77;494282;1143;65171;-69
2020/12/29 04:41:01;;;;;;;5.37;4.43;;;;;;;4.96;77.86;96534.41;493710;1143;65152;-68
2020/12/29 04:51:07;;;;;;;6.25;3.55;;;;;;;4.94;78.07;96527.70;493937;1143;65114;-69
2020/12/29 05:01:13;;;;;;;6.73;4.03;;;;;;;4.90;78.34;96503.75;494560;1143;65155;-69
2020/12/29 05:11:20;;;;;;;5.47;4.47;;;;;;;4.87;78.83;96523.06;494061;1143;65535;-69
2020/12/29 05:21:25;;;;;;;5.80;4.23;;;;;;;4.75;79.56;96517.17;493616;1143;65188;-68
2020/12/29 05:31:29;;;;;;;4.80;4.00;;;;;;;4.75;79.76;96495.58;493527;1143;65111;-70
2020/12/29 05:41:38;;;;;;;5.50;3.33;;;;;;;4.80;79.55;96467.38;493243;1143;65242;-69
2020/12/29 05:51:46;;;;;;;4.67;3.67;;;;;;;4.84;80.44;96473.12;493761;1144;65605;-70
2020/12/29 06:01:52;;;;;;;4.30;3.63;;;;;;;4.82;80.56;96469.84;493582;1143;65538;-69
2020/12/29 06:11:59;;;;;;;5.67;4.37;;;;;;;4.77;80.82;96458.06;494180;1143;65120;-69
2020/12/29 06:22:06;;;;;;;5.80;5.20;;;;;;;4.73;81.64;96477.51;493773;1143;65561;-69
2020/12/29 06:32:13;;;;;;;6.45;4.17;;;;;;;4.73;81.43;96477.51;493971;1143;65137;-69
2020/12/29 06:42:18;;;;;;;5.77;4.20;;;;;;;4.72;82.26;96477.63;493622;1144;65175;-70
2020/12/29 06:52:33;;;;;;;8.40;4.57;;;;;;;4.71;82.08;96488.99;493889;1143;65536;-68
2020/12/29 07:02:38;;;;;;;6.30;4.83;;;;;;;4.76;82.39;96492.82;493813;1142;66456;-69
2020/12/29 07:12:45;;;;;;;10.60;6.87;;;;;;;4.77;82.92;96507.45;493874;1143;65149;-64
2020/12/29 07:22:56;;;;;;;10.33;5.90;;;;;;;4.80;82.30;96510.77;494075;1143;65130;-65
2020/12/29 07:33:02;;;;;;;9.40;6.40;;;;;;;4.81;83.09;96518.41;494039;1143;65108;-64
2020/12/29 07:43:07;;;;;;;11.93;6.27;;;;;;;4.81;83.26;96522.80;493886;1143;65130;-64
2020/12/29 07:53:13;;;;;;;8.63;5.93;;;;;;;4.80;83.46;96534.97;494155;1144;65162;-67
2020/12/29 08:03:18;;;;;;;7.27;4.90;;;;;;;4.75;83.03;96540.57;494133;1143;65104;-66
2020/12/29 08:13:22;;;;;;;4.57;3.90;;;;;;;4.63;82.62;96552.90;493754;1143;65130;-64
2020/12/29 08:23:27;;;;;;;7.37;3.60;;;;;;;4.47;83.18;96589.80;492766;1144;65551;-65
2020/12/29 08:33:32;;;;;;;4.43;3.63;;;;;;;4.20;82.74;96613.80;493382;1143;65107;-67
2020/12/29 08:43:42;;;;;;;9.13;4.43;;;;;;;3.89;82.90;96643.19;493925;1143;65204;-66
2020/12/29 08:53:49;;;;;;;4.35;2.80;;;;;;;3.69;83.70;96667.38;494218;1143;65113;-66
2020/12/29 09:03:54;;;;;;;5.40;3.67;;;;;;;3.54;83.34;96691.06;493661;1143;65248;-64
2020/12/29 09:14:04;;;;;;;;;;;;;;;3.37;83.76;96733.94;494101;1143;65118;-67
2020/12/29 09:24:08;;;;;;;7.80;5.23;;;;;;;3.23;83.84;96742.81;494112;1143;65111;-66
2020/12/29 09:34:11;;;;;;;8.93;6.47;;;;;;;3.18;83.80;96771.70;493738;1143;65238;-66
2020/12/29 09:44:15;;;;;;;11.13;8.40;;;;;;;3.22;83.67;96790.44;493591;1143;65339;-62
2020/12/29 09:54:19;;;;;;;9.40;7.87;;;;;;;3.32;84.85;96798.30;485210;1143;10001561;-63
2020/12/29 10:04:23;;;;;;;11.90;8.67;;;;;;;3.42;85.21;96814.79;493051;1143;66506;-63
2020/12/29 10:14:27;;;;;;;11.55;8.25;;;;;;;3.55;84.71;96847.55;493486;1142;65121;-64
2020/12/29 10:24:31;;;;;;;14.30;11.17;;;;;;;3.69;84.62;96875.00;493332;1143;65178;-63
2020/12/29 10:34:35;;;;;;;11.10;8.90;;;;;;;3.74;84.42;96917.81;493791;1144;65223;-63
2020/12/29 10:44:39;;;;;;;16.20;9.90;;;;;;;3.77;83.76;96959.09;493735;1143;65419;-63
2020/12/29 10:54:43;;;;;;;14.57;10.43;;;;;;;3.79;83.72;96982.34;493891;1143;65124;-64
2020/12/29 11:04:46;;;;;;;14.50;10.75;;;;;;;3.75;83.06;96994.73;493723;1143;65127;-69
2020/12/29 11:14:50;;;;;;;11.03;8.93;;;;;;;3.79;82.17;97023.88;494275;1143;65159;-62
2020/12/29 11:24:54;;;;;;;10.40;7.63;;;;;;;3.76;81.88;97045.70;493691;1143;65203;-69
2020/12/29 11:34:58;;;;;;;12.85;7.15;;;;;;;3.80;81.65;97059.27;493430;1143;65215;-63
2020/12/29 11:45:02;;;;;;;9.93;6.80;;;;;;;3.93;81.08;97082.52;493140;1144;65114;-66
2020/12/29 11:55:06;;;;;;;9.95;5.85;;;;;;;4.03;80.75;97100.81;494505;1143;65136;-63
2020/12/29 12:05:12;;;;;;;10.30;6.40;;;;;;;4.22;80.63;97120.17;494306;1143;65407;-70
2020/12/29 12:15:16;;;;;;;8.70;6.13;;;;;;;4.55;80.38;97137.48;494492;1143;65108;-63
2020/12/29 12:25:20;;;;;;;8.35;6.55;;;;;;;5.20;79.63;97149.70;493433;1143;65210;-63
2020/12/29 12:35:24;;;;;;;6.07;4.93;;;;;;;5.52;78.62;97166.23;493475;1143;10001590;-61
2020/12/29 12:45:28;;;;;;;8.60;4.20;;;;;;;5.51;77.65;97175.83;493346;1143;65124;-63
2020/12/29 12:55:34;;;;;;;7.00;3.83;;;;;;;5.43;77.56;97207.70;500429;1143;65250;-63
2020/12/29 13:05:38;;;;;;;7.50;4.40;;;;;;;5.38;77.13;97216.83;493797;1142;65121;-66
2020/12/29 13:15:43;;;;;;;9.50;5.67;;;;;;;5.32;75.81;97244.98;493719;1143;65557;-63
2020/12/29 13:25:47;;;;;;;6.25;4.95;;;;;;;5.43;76.07;97266.72;494108;1144;65127;-65
2020/12/29 13:35:51;;;;;;;6.20;4.13;;;;;;;5.59;75.78;97297.55;494207;1143;65135;-65
2020/12/29 13:45:55;;;;;;;7.97;4.70;;;;;;;5.60;75.02;97310.45;493747;1143;65218;-64
2020/12/29 13:55:59;;;;;;;9.20;5.80;;;;;;;5.53;74.64;97345.73;494162;1143;65118;-63
2020/12/29 14:06:03;;;;;;;9.63;6.37;;;;;;;5.37;74.79;97358.28;494306;1143;65207;-63
2020/12/29 14:16:07;;;;;;;12.10;6.60;;;;;;;5.11;74.35;97397.57;485436;1143;10001950;-64
2020/12/29 14:26:13;;;;;;;10.20;6.00;;;;;;;4.86;74.39;97402.05;493269;1143;65644;-63
2020/12/29 14:36:23;;;;;;;7.13;5.30;;;;;;;4.61;74.21;97420.31;492986;1143;65597;-63
2020/12/29 14:46:27;;;;;;;10.80;5.60;;;;;;;4.41;74.74;97434.78;493237;1143;65161;-62
2020/12/29 14:56:33;;;;;;;9.33;6.10;;;;;;;4.14;74.82;97420.28;493201;1143;65112;-63
2020/12/29 15:06:37;;;;;;;11.77;7.13;;;;;;;3.85;74.39;97451.75;493545;1143;65599;-62
2020/12/29 15:16:41;;;;;;;15.45;9.10;;;;;;;3.57;75.11;97474.47;493604;1143;65194;-61
2020/12/29 15:26:45;;;;;;;17.67;10.20;;;;;;;3.31;75.18;97491.81;493924;1143;65209;-62
2020/12/29 15:36:53;;;;;;;25.33;14.30;;;;;;;3.10;74.55;97497.52;493621;1143;65138;-60
2020/12/29 15:46:57;;;;;;;16.93;10.37;;;;;;;2.93;74.84;97530.59;493348;1144;65200;-61
2020/12/29 15:57:01;;;;;;;24.80;13.23;;;;;;;2.76;75.37;97546.41;493667;1143;65139;-60
2020/12/29 16:07:06;;;;;;;20.17;10.23;;;;;;;2.72;75.34;97550.13;493108;1143;65558;-59
2020/12/29 16:17:10;;;;;;;12.53;6.63;;;;;;;2.75;75.29;97555.95;492863;1143;65154;-59
2020/12/29 16:27:14;;;;;;;10.33;7.20;;;;;;;2.84;75.12;97575.26;494061;1143;65179;-59
2020/12/29 16:37:18;;;;;;;11.83;6.47;;;;;;;2.86;74.46;97601.91;493912;1143;65191;-61
2020/12/29 16:47:22;;;;;;;12.17;8.07;;;;;;;2.90;74.35;97611.17;493623;1143;65136;-61
2020/12/29 16:57:26;;;;;;;16.50;9.03;;;;;;;2.84;73.91;97627.10;493319;1143;65236;-59
2020/12/29 17:07:30;;;;;;;29.20;15.47;;;;;;;2.72;74.48;97640.84;493102;1143;65536;-61
2020/12/29 17:17:33;;;;;;;28.60;14.45;;;;;;;2.61;74.10;97636.35;493327;1143;65251;-61
2020/12/29 17:27:37;;;;;;;20.20;10.20;;;;;;;2.54;74.93;97656.63;493164;1143;65133;-60
2020/12/29 17:37:41;;;;;;;15.70;9.87;;;;;;;2.50;74.75;97668.09;493285;1143;65120;-63
2020/12/29 17:47:45;;;;;;;17.07;10.07;;;;;;;2.46;74.87;97677.81;493771;1143;65105;-58
2020/12/29 17:57:49;;;;;;;16.57;9.90;;;;;;;2.56;75.33;97690.20;493448;1143;65551;-59
2020/12/29 18:07:53;;;;;;;21.47;11.63;;;;;;;2.67;75.28;97692.96;493473;1143;65129;-58
2020/12/29 18:17:57;;;;;;;17.67;8.83;;;;;;;2.73;75.26;97712.48;493413;1143;65116;-59
2020/12/29 18:28:01;;;;;;;15.27;8.90;;;;;;;2.69;75.38;97729.98;493690;1143;65214;-61
2020/12/29 18:38:06;;;;;;;16.00;8.40;;;;;;;2.61;75.56;97742.59;493124;1143;65116;-56
2020/12/29 18:48:09;;;;;;;21.73;10.60;;;;;;;2.49;75.89;97755.37;493551;1143;65542;-62
2020/12/29 18:58:13;;;;;;;15.27;8.10;;;;;;;2.55;76.74;97771.45;493303;1143;65219;-59
2020/12/29 19:08:17;;;;;;;11.93;6.67;;;;;;;2.56;76.68;97783.48;493310;1143;65130;-59
2020/12/29 19:18:21;;;;;;;15.65;7.85;;;;;;;2.58;76.94;97787.66;492997;1143;65224;-59
2020/12/29 19:28:25;;;;;;;13.00;7.47;;;;;;;2.61;76.86;97813.37;493342;1144;65576;-59
2020/12/29 19:38:29;;;;;;;12.03;6.67;;;;;;;2.61;77.12;97846.25;494020;1144;65114;-59
2020/12/29 19:48:33;;;;;;;14.10;7.30;;;;;;;2.59;77.24;97858.44;494054;1143;65603;-60
2020/12/29 19:58:37;;;;;;;10.10;5.77;;;;;;;2.64;77.50;97870.20;493909;1144;65116;-59
2020/12/29 20:08:41;;;;;;;10.80;6.67;;;;;;;2.76;77.95;97883.36;493575;1143;65107;-59
2020/12/29 20:18:45;;;;;;;11.10;6.10;;;;;;;2.88;77.53;97918.92;494210;1143;65116;-59
2020/12/29 20:28:50;;;;;;;12.77;6.17;;;;;;;2.93;77.24;97940.23;493867;1143;65538;-60
2020/12/29 20:38:54;;;;;;;16.40;7.47;;;;;;;2.92;77.64;97932.54;493695;1143;65131;-62
2020/12/29 20:48:58;;;;;;;12.20;6.63;;;;;;;2.91;77.36;97934.31;494053;1144;65638;-60
2020/12/29 20:59:04;;;;;;;13.83;7.20;;;;;;;2.87;77.11;97948.36;494139;1143;65204;-60
2020/12/29 21:09:08;;;;;;;12.87;7.43;;;;;;;2.78;77.85;97967.07;493995;1143;65214;-59
2020/12/29 21:19:12;;;;;;;11.27;6.20;;;;;;;2.66;77.75;97984.16;494129;1143;65806;-59
2020/12/29 21:29:16;;;;;;;12.07;8.17;;;;;;;2.50;77.92;98002.33;493888;1144;65182;-59
2020/12/29 21:39:20;;;;;;;18.27;9.67;;;;;;;2.36;77.95;98009.13;493586;1143;65143;-59
2020/12/29 21:49:24;;;;;;;12.87;7.43;;;;;;;2.21;78.41;98022.94;493902;1144;65111;-59
2020/12/29 21:59:28;;;;;;;15.40;7.10;;;;;;;2.06;78.58;98032.38;493864;1143;65337;-60
2020/12/29 22:09:32;;;;;;;13.85;9.00;;;;;;;1.89;78.87;98038.45;494037;1143;65329;-60
2020/12/29 22:19:36;;;;;;;22.63;14.73;;;;;;;1.75;79.68;98044.36;493671;1143;65134;-59
2020/12/29 22:29:40;;;;;;;38.20;20.97;;;;;;;1.65;79.84;98060.36;493827;1144;65191;-60
2020/12/29 22:39:43;;;;;;;26.67;14.93;;;;;;;1.59;80.05;98067.61;494177;1143;65487;-60
2020/12/29 22:49:47;;;;;;;22.60;13.27;;;;;;;1.46;80.39;98085.53;493782;1143;65115;-59
2020/12/29 22:59:52;;;;;;;23.53;12.40;;;;;;;1.32;80.04;98083.62;494258;1143;65107;-60
2020/12/29 23:09:57;;;;;;;24.75;14.20;;;;;;;1.18;80.94;98098.09;493634;1143;65201;-60
2020/12/29 23:20:01;;;;;;;26.70;14.55;;;;;;;1.03;80.51;98104.00;493955;1143;65551;-60
2020/12/29 23:30:05;;;;;;;25.27;16.03;;;;;;;0.87;80.67;98115.09;493961;1143;65224;-60
2020/12/29 23:40:09;;;;;;;30.55;19.25;;;;;;;0.68;80.62;98110.79;494158;1144;65573;-60
2020/12/29 23:50:14;;;;;;;27.10;17.00;;;;;;;0.59;80.76;98123.31;493582;1143;65184;-59
